Time;durP1;ratioP1;P1;durP2;ratioP2;P2;SDS_P1;SDS_P2;PMS_P1;PMS_P2;Temp;Humidity;BMP_temperature;BMP_pressure;BME280_temperature;BME280_humidity;BME280_pressure;Samples;Min_cycle;Max_cycle;Signal;HPM_P1;HPM_P2
2022/11/03 00:01:55;;;;;;;1.60;1.60;;;;;;;;;;4979319;28;20907;-64
2022/11/03 00:04:21;;;;;;;1.30;1.30;;;;;;;;;;4973858;28;20292;-65
2022/11/03 00:06:48;;;;;;;1.57;1.57;;;;;;;;;;4977108;28;20242;-64
2022/11/03 00:09:14;;;;;;;1.50;1.50;;;;;;;;;;4979035;28;20236;-65
2022/11/03 00:11:41;;;;;;;1.60;1.60;;;;;;;;;;4954084;28;20230;-65
2022/11/03 00:14:08;;;;;;;1.27;1.27;;;;;;;;;;4993462;28;20242;-65
2022/11/03 00:16:34;;;;;;;1.20;1.20;;;;;;;;;;4969794;28;20375;-65
2022/11/03 00:19:00;;;;;;;1.47;1.47;;;;;;;;;;4981685;28;20221;-65
2022/11/03 00:21:26;;;;;;;1.40;1.40;;;;;;;;;;4974967;28;20230;-65
2022/11/03 00:23:52;;;;;;;1.20;1.20;;;;;;;;;;4978839;28;20763;-64
2022/11/03 00:26:22;;;;;;;1.27;1.27;;;;;;;;;;4964263;28;20230;-65
2022/11/03 00:28:54;;;;;;;1.83;1.73;;;;;;;;;;4982685;28;20217;-64
2022/11/03 00:31:24;;;;;;;1.40;1.40;;;;;;;;;;4984824;28;20297;-65
2022/11/03 00:33:50;;;;;;;1.17;1.17;;;;;;;;;;4989177;28;20224;-64
2022/11/03 00:36:16;;;;;;;1.43;1.43;;;;;;;;;;4975667;28;20233;-65
2022/11/03 00:38:43;;;;;;;1.43;1.43;;;;;;;;;;4986362;28;20226;-64
2022/11/03 00:41:09;;;;;;;2.00;1.90;;;;;;;;;;4959242;28;20228;-65
2022/11/03 00:43:35;;;;;;;1.40;1.40;;;;;;;;;;4968178;28;20226;-65
2022/11/03 00:46:01;;;;;;;1.50;1.50;;;;;;;;;;4958231;28;20225;-64
2022/11/03 00:48:31;;;;;;;1.50;1.50;;;;;;;;;;4990524;28;20232;-64
2022/11/03 00:51:10;;;;;;;1.10;1.10;;;;;;;;;;4994661;28;20583;-65
2022/11/03 00:53:45;;;;;;;1.60;1.60;;;;;;;;;;4990937;28;22192;-65
2022/11/03 00:56:15;;;;;;;1.20;1.20;;;;;;;;;;4994334;28;20225;-65
2022/11/03 00:58:41;;;;;;;1.60;1.60;;;;;;;;;;4984892;28;20352;-65
2022/11/03 01:01:07;;;;;;;1.60;1.60;;;;;;;;;;4985587;28;20925;-64
2022/11/03 01:03:34;;;;;;;1.70;1.70;;;;;;;;;;4976683;28;20272;-65
2022/11/03 01:08:44;;;;;;;1.50;1.50;;;;;;;;;;4975662;28;20877;-64
2022/11/03 01:13:59;;;;;;;1.30;1.30;;;;;;;;;;4971746;28;20372;-64
2022/11/03 01:16:26;;;;;;;1.23;1.23;;;;;;;;;;4974222;28;20523;-65
2022/11/03 01:18:52;;;;;;;1.40;1.40;;;;;;;;;;4982216;28;21001;-64
2022/11/03 01:21:18;;;;;;;1.40;1.40;;;;;;;;;;4976243;28;20234;-64
2022/11/03 01:23:44;;;;;;;1.40;1.40;;;;;;;;;;4984085;28;20230;-64
2022/11/03 01:26:10;;;;;;;1.40;1.40;;;;;;;;;;4977699;28;20228;-65
2022/11/03 01:31:40;;;;;;;1.50;1.50;;;;;;;;;;4971909;28;20726;-64
2022/11/03 01:34:06;;;;;;;1.37;1.37;;;;;;;;;;4980497;28;20209;-65
2022/11/03 01:36:32;;;;;;;1.40;1.40;;;;;;;;;;4981496;28;20905;-65
2022/11/03 01:38:57;;;;;;;1.30;1.30;;;;;;;;;;4978759;28;20351;-65
2022/11/03 01:41:25;;;;;;;1.30;1.30;;;;;;;;;;4972317;28;20222;-65
2022/11/03 01:43:51;;;;;;;1.20;1.20;;;;;;;;;;4982136;28;21246;-64
2022/11/03 01:46:24;;;;;;;1.23;1.23;;;;;;;;;;4977355;28;20352;-64
2022/11/03 01:48:58;;;;;;;1.30;1.30;;;;;;;;;;4971017;28;20233;-64
2022/11/03 01:51:24;;;;;;;1.47;1.47;;;;;;;;;;4963621;28;20846;-64
2022/11/03 01:53:50;;;;;;;1.30;1.30;;;;;;;;;;4988612;28;20326;-64
2022/11/03 01:56:16;;;;;;;1.40;1.40;;;;;;;;;;4985204;28;20304;-65
2022/11/03 01:58:43;;;;;;;1.50;1.50;;;;;;;;;;4952373;28;20659;-65
2022/11/03 02:01:09;;;;;;;1.30;1.30;;;;;;;;;;4936173;28;20662;-66
2022/11/03 02:03:41;;;;;;;1.50;1.50;;;;;;;;;;4973526;28;20226;-67
2022/11/03 02:06:07;;;;;;;1.50;1.50;;;;;;;;;;4969910;28;20201;-66
2022/11/03 02:08:41;;;;;;;1.50;1.50;;;;;;;;;;4974968;28;20360;-66
2022/11/03 02:13:52;;;;;;;1.50;1.50;;;;;;;;;;4980639;28;20324;-66
2022/11/03 02:16:18;;;;;;;1.30;1.30;;;;;;;;;;4979281;28;20614;-67
2022/11/03 02:18:44;;;;;;;1.40;1.40;;;;;;;;;;4973002;28;20228;-66
2022/11/03 02:21:22;;;;;;;1.60;1.60;;;;;;;;;;4978030;28;20225;-66
2022/11/03 02:23:50;;;;;;;1.60;1.60;;;;;;;;;;4973201;28;20217;-66
2022/11/03 02:26:16;;;;;;;1.60;1.60;;;;;;;;;;4958426;28;20850;-67
2022/11/03 02:28:42;;;;;;;1.30;1.30;;;;;;;;;;4974823;28;20225;-66
2022/11/03 02:31:16;;;;;;;1.70;1.70;;;;;;;;;;4952712;28;20245;-66
2022/11/03 02:33:53;;;;;;;1.40;1.40;;;;;;;;;;4971273;28;20284;-67
2022/11/03 02:36:24;;;;;;;1.40;1.40;;;;;;;;;;4959877;28;20406;-67
2022/11/03 02:39:13;;;;;;;1.30;1.30;;;;;;;;;;4972552;28;20268;-67
2022/11/03 02:41:39;;;;;;;1.30;1.30;;;;;;;;;;4975424;28;20657;-67
2022/11/03 02:44:06;;;;;;;1.30;1.30;;;;;;;;;;4974735;28;20268;-66
2022/11/03 02:46:32;;;;;;;1.20;1.20;;;;;;;;;;4950873;28;20225;-66
2022/11/03 02:48:58;;;;;;;1.30;1.30;;;;;;;;;;4974552;28;20351;-67
2022/11/03 02:51:24;;;;;;;1.30;1.30;;;;;;;;;;4996053;28;20229;-68
2022/11/03 02:53:58;;;;;;;1.30;1.30;;;;;;;;;;4960815;28;21043;-67
2022/11/03 02:56:24;;;;;;;1.20;1.20;;;;;;;;;;4952938;28;21067;-68
2022/11/03 02:58:52;;;;;;;1.30;1.30;;;;;;;;;;4981354;28;20253;-68
2022/11/03 03:01:18;;;;;;;1.40;1.40;;;;;;;;;;4979884;28;20688;-68
2022/11/03 03:03:47;;;;;;;1.53;1.53;;;;;;;;;;4982103;28;20448;-68
2022/11/03 03:06:15;;;;;;;1.50;1.50;;;;;;;;;;4963859;28;20232;-67
2022/11/03 03:08:42;;;;;;;1.40;1.40;;;;;;;;;;4963346;28;21621;-68
2022/11/03 03:11:07;;;;;;;1.60;1.60;;;;;;;;;;4983017;28;20214;-68
2022/11/03 03:13:33;;;;;;;1.50;1.50;;;;;;;;;;4982229;28;20681;-68
2022/11/03 03:16:05;;;;;;;1.77;1.70;;;;;;;;;;4986352;28;20770;-67
2022/11/03 03:18:34;;;;;;;1.30;1.30;;;;;;;;;;4959664;28;20341;-67
2022/11/03 03:21:14;;;;;;;1.30;1.30;;;;;;;;;;4968535;28;20353;-68
2022/11/03 03:23:46;;;;;;;1.40;1.40;;;;;;;;;;4955972;28;20232;-68
2022/11/03 03:26:28;;;;;;;1.40;1.40;;;;;;;;;;4981375;28;20244;-67
2022/11/03 03:29:15;;;;;;;1.10;1.10;;;;;;;;;;4982513;28;20826;-68
2022/11/03 03:31:41;;;;;;;1.37;1.37;;;;;;;;;;4978363;28;20308;-68
2022/11/03 03:34:07;;;;;;;1.20;1.20;;;;;;;;;;4962076;28;20256;-68
2022/11/03 03:36:33;;;;;;;1.10;1.10;;;;;;;;;;4969348;28;20224;-68
2022/11/03 03:39:00;;;;;;;1.30;1.30;;;;;;;;;;4981957;28;20304;-68
2022/11/03 03:41:26;;;;;;;1.10;1.10;;;;;;;;;;4973763;28;21098;-68
2022/11/03 03:43:53;;;;;;;1.30;1.30;;;;;;;;;;4983870;28;20255;-67
2022/11/03 03:46:20;;;;;;;1.10;1.10;;;;;;;;;;4986510;28;20617;-68
2022/11/03 03:48:46;;;;;;;1.23;1.23;;;;;;;;;;4991586;28;20749;-69
2022/11/03 03:51:12;;;;;;;1.30;1.30;;;;;;;;;;4990196;28;20305;-68
2022/11/03 03:53:38;;;;;;;1.20;1.20;;;;;;;;;;4957097;28;20222;-68
2022/11/03 03:56:04;;;;;;;1.20;1.20;;;;;;;;;;4988035;28;20714;-67
2022/11/03 03:58:30;;;;;;;1.10;1.10;;;;;;;;;;4987384;28;21714;-68
2022/11/03 04:00:56;;;;;;;1.27;1.27;;;;;;;;;;4998955;28;20227;-67
2022/11/03 04:03:23;;;;;;;1.30;1.30;;;;;;;;;;4994764;28;20517;-67
2022/11/03 04:05:49;;;;;;;1.20;1.20;;;;;;;;;;4975422;28;20646;-68
2022/11/03 04:08:15;;;;;;;1.20;1.20;;;;;;;;;;4984054;28;20238;-68
2022/11/03 04:22:15;;;;;;;1.10;1.10;;;;;;;;;;4975566;28;20221;-68
2022/11/03 04:24:26;;;;;;;1.10;1.10;;;;;;;;;;4986887;28;20464;-67
2022/11/03 04:26:52;;;;;;;1.10;1.10;;;;;;;;;;4977761;28;20672;-68
2022/11/03 04:29:18;;;;;;;1.20;1.20;;;;;;;;;;4962489;28;20225;-68
2022/11/03 04:31:44;;;;;;;1.10;1.10;;;;;;;;;;4986053;28;20214;-68
2022/11/03 04:34:11;;;;;;;1.00;1.00;;;;;;;;;;4983620;28;20225;-69
2022/11/03 04:36:37;;;;;;;1.20;1.20;;;;;;;;;;4959146;28;20775;-67
2022/11/03 04:39:05;;;;;;;1.23;1.23;;;;;;;;;;4985192;28;21053;-67
2022/11/03 04:41:31;;;;;;;1.20;1.20;;;;;;;;;;4949707;28;20847;-68
2022/11/03 04:43:57;;;;;;;1.10;1.10;;;;;;;;;;4973386;28;20233;-66
2022/11/03 04:46:24;;;;;;;1.00;1.00;;;;;;;;;;4983535;28;20710;-68
2022/11/03 04:48:50;;;;;;;1.10;1.10;;;;;;;;;;4972447;28;20233;-68
2022/11/03 04:51:17;;;;;;;0.80;0.80;;;;;;;;;;4956657;28;20292;-68
2022/11/03 04:53:44;;;;;;;1.10;1.10;;;;;;;;;;4976454;28;20214;-68
2022/11/03 04:56:14;;;;;;;1.10;1.10;;;;;;;;;;4975986;28;20217;-68
2022/11/03 04:58:40;;;;;;;1.30;1.30;;;;;;;;;;4961453;28;20221;-68
2022/11/03 05:01:06;;;;;;;1.03;1.03;;;;;;;;;;4974092;28;20618;-68
2022/11/03 05:03:32;;;;;;;1.00;1.00;;;;;;;;;;4955885;28;20229;-67
2022/11/03 05:05:58;;;;;;;1.20;1.20;;;;;;;;;;4986971;28;20229;-68
2022/11/03 05:08:24;;;;;;;1.20;1.20;;;;;;;;;;4966876;28;20320;-67
2022/11/03 05:10:50;;;;;;;1.10;1.10;;;;;;;;;;4993168;28;20232;-67
2022/11/03 05:13:17;;;;;;;1.10;1.10;;;;;;;;;;4985342;28;20784;-67
2022/11/03 05:15:44;;;;;;;1.20;1.20;;;;;;;;;;4960595;28;20693;-66
2022/11/03 05:18:14;;;;;;;1.17;1.17;;;;;;;;;;4967706;28;20229;-68
2022/11/03 05:21:01;;;;;;;1.23;1.23;;;;;;;;;;4972819;28;21328;-69
2022/11/03 05:23:27;;;;;;;1.17;1.17;;;;;;;;;;4965405;28;20269;-69
2022/11/03 05:25:53;;;;;;;1.10;1.10;;;;;;;;;;4973694;28;20233;-67
2022/11/03 05:28:19;;;;;;;1.20;1.20;;;;;;;;;;4968317;28;20228;-69
2022/11/03 05:30:46;;;;;;;1.40;1.40;;;;;;;;;;4976686;28;20699;-68
2022/11/03 05:33:22;;;;;;;1.20;1.20;;;;;;;;;;4977504;28;20677;-70
2022/11/03 05:35:48;;;;;;;1.10;1.10;;;;;;;;;;4981156;28;21462;-70
2022/11/03 05:38:14;;;;;;;1.10;1.10;;;;;;;;;;4981263;28;20228;-70
2022/11/03 05:40:40;;;;;;;1.10;1.10;;;;;;;;;;4965489;28;20217;-69
2022/11/03 05:43:07;;;;;;;1.00;1.00;;;;;;;;;;4941795;28;20325;-68
2022/11/03 05:45:33;;;;;;;1.27;1.27;;;;;;;;;;4959461;28;20237;-69
2022/11/03 05:48:00;;;;;;;1.20;1.20;;;;;;;;;;4971465;28;20220;-69
2022/11/03 05:50:27;;;;;;;1.10;1.10;;;;;;;;;;4955449;28;20814;-69
2022/11/03 05:52:56;;;;;;;1.10;1.10;;;;;;;;;;4952556;28;20292;-67
2022/11/03 05:55:27;;;;;;;1.20;1.20;;;;;;;;;;4947488;28;20822;-68
2022/11/03 05:57:53;;;;;;;1.23;1.23;;;;;;;;;;4972469;28;20628;-68
2022/11/03 06:00:39;;;;;;;1.10;1.10;;;;;;;;;;4964305;28;20776;-68
2022/11/03 06:03:05;;;;;;;1.10;1.10;;;;;;;;;;4965697;28;20221;-66
2022/11/03 06:05:31;;;;;;;1.00;1.00;;;;;;;;;;4955522;28;20229;-68
2022/11/03 06:07:57;;;;;;;1.10;1.10;;;;;;;;;;4966998;28;21234;-68
2022/11/03 06:10:24;;;;;;;1.10;1.10;;;;;;;;;;4946614;28;20266;-59
2022/11/03 06:12:51;;;;;;;1.03;1.03;;;;;;;;;;4970218;28;20208;-60
2022/11/03 06:15:33;;;;;;;1.10;1.10;;;;;;;;;;4979404;28;20240;-62
2022/11/03 06:17:59;;;;;;;1.00;1.00;;;;;;;;;;4982605;28;20350;-61
2022/11/03 06:20:25;;;;;;;1.27;1.27;;;;;;;;;;4978320;28;21328;-61
2022/11/03 06:22:52;;;;;;;1.10;1.10;;;;;;;;;;4978570;28;20237;-61
2022/11/03 06:25:22;;;;;;;1.00;1.00;;;;;;;;;;4983023;28;20320;-62
2022/11/03 06:27:48;;;;;;;1.20;1.20;;;;;;;;;;4980587;28;20198;-62
2022/11/03 06:30:21;;;;;;;1.03;1.03;;;;;;;;;;4976173;28;20236;-62
2022/11/03 06:32:47;;;;;;;1.10;1.10;;;;;;;;;;4973788;28;20193;-63
2022/11/03 06:35:13;;;;;;;1.10;1.10;;;;;;;;;;4982816;28;20645;-67
2022/11/03 06:37:39;;;;;;;1.00;1.00;;;;;;;;;;4983789;28;20229;-69
2022/11/03 06:40:11;;;;;;;1.10;1.10;;;;;;;;;;4996676;28;20710;-68
2022/11/03 06:42:40;;;;;;;1.10;1.10;;;;;;;;;;5002460;28;20225;-67
2022/11/03 06:45:12;;;;;;;1.00;1.00;;;;;;;;;;4997947;28;20237;-67
2022/11/03 06:47:38;;;;;;;1.10;1.10;;;;;;;;;;4979615;28;20235;-68
2022/11/03 06:50:06;;;;;;;1.00;1.00;;;;;;;;;;4994350;28;20221;-68
2022/11/03 06:52:33;;;;;;;1.07;1.07;;;;;;;;;;4979601;28;21744;-69
2022/11/03 06:55:08;;;;;;;1.13;1.13;;;;;;;;;;4984022;28;20221;-68
2022/11/03 06:57:35;;;;;;;1.10;1.10;;;;;;;;;;4994430;28;20248;-68
2022/11/03 07:00:01;;;;;;;1.17;1.17;;;;;;;;;;4998305;28;20297;-68
2022/11/03 07:02:47;;;;;;;1.00;1.00;;;;;;;;;;5001639;28;20291;-68
2022/11/03 07:05:17;;;;;;;1.07;1.07;;;;;;;;;;4966727;28;20251;-68
2022/11/03 07:07:43;;;;;;;1.10;1.10;;;;;;;;;;5002703;28;20305;-68
2022/11/03 07:10:09;;;;;;;1.10;1.10;;;;;;;;;;4988841;28;20214;-68
2022/11/03 07:12:35;;;;;;;1.10;1.10;;;;;;;;;;4979202;28;20224;-68
2022/11/03 07:15:01;;;;;;;1.10;1.10;;;;;;;;;;4999842;28;20225;-68
2022/11/03 07:17:27;;;;;;;1.00;1.00;;;;;;;;;;5002135;28;20225;-67
2022/11/03 07:19:53;;;;;;;1.10;1.10;;;;;;;;;;4999642;28;21077;-67
2022/11/03 07:22:19;;;;;;;1.00;1.00;;;;;;;;;;4998659;28;21257;-68
2022/11/03 07:24:46;;;;;;;1.00;1.00;;;;;;;;;;5005934;28;20229;-68
2022/11/03 07:27:24;;;;;;;1.00;1.00;;;;;;;;;;4999313;28;20221;-68
2022/11/03 07:29:50;;;;;;;1.00;1.00;;;;;;;;;;4993879;28;20230;-67
2022/11/03 07:32:18;;;;;;;1.03;1.03;;;;;;;;;;4995727;28;20435;-68
2022/11/03 07:34:44;;;;;;;1.10;1.10;;;;;;;;;;4993064;28;20216;-68
2022/11/03 07:37:13;;;;;;;1.00;1.00;;;;;;;;;;4977935;28;20271;-67
2022/11/03 07:39:39;;;;;;;1.00;1.00;;;;;;;;;;4992482;28;20587;-67
2022/11/03 07:42:11;;;;;;;1.10;1.10;;;;;;;;;;4995779;28;20229;-68
2022/11/03 07:44:37;;;;;;;1.10;1.10;;;;;;;;;;4975614;28;20236;-68
2022/11/03 07:47:03;;;;;;;1.07;1.07;;;;;;;;;;4998854;28;20302;-67
2022/11/03 07:49:29;;;;;;;1.17;1.17;;;;;;;;;;4997465;28;20221;-69
2022/11/03 07:51:58;;;;;;;1.10;1.10;;;;;;;;;;5002238;28;20233;-68
2022/11/03 07:54:31;;;;;;;1.00;1.00;;;;;;;;;;4998893;28;20240;-68
2022/11/03 07:57:00;;;;;;;1.20;1.20;;;;;;;;;;5000817;28;20744;-68
2022/11/03 07:59:28;;;;;;;1.27;1.27;;;;;;;;;;4989664;28;20240;-68
2022/11/03 08:01:55;;;;;;;1.00;1.00;;;;;;;;;;4989844;28;20277;-68
2022/11/03 08:04:24;;;;;;;1.30;1.30;;;;;;;;;;5002883;28;20224;-68
2022/11/03 08:06:50;;;;;;;1.40;1.40;;;;;;;;;;5008196;28;20233;-68
2022/11/03 08:09:17;;;;;;;1.10;1.10;;;;;;;;;;4998635;28;20778;-69
2022/11/03 08:11:42;;;;;;;1.40;1.40;;;;;;;;;;4998714;28;20226;-68
2022/11/03 08:14:09;;;;;;;1.23;1.23;;;;;;;;;;5002774;28;20343;-68
2022/11/03 08:16:35;;;;;;;1.20;1.20;;;;;;;;;;4997288;28;20301;-69
2022/11/03 08:19:01;;;;;;;0.90;0.90;;;;;;;;;;4981493;28;20642;-69
2022/11/03 08:21:27;;;;;;;1.07;1.07;;;;;;;;;;5000084;28;20218;-68
2022/11/03 08:23:53;;;;;;;1.20;1.20;;;;;;;;;;4995341;28;20239;-68
2022/11/03 08:26:19;;;;;;;1.10;1.10;;;;;;;;;;5002111;28;20218;-68
2022/11/03 08:28:45;;;;;;;1.10;1.10;;;;;;;;;;4998545;28;20226;-68
2022/11/03 08:31:11;;;;;;;1.20;1.20;;;;;;;;;;5007169;28;20228;-69
2022/11/03 08:33:37;;;;;;;1.67;1.67;;;;;;;;;;5001112;28;20556;-68
2022/11/03 08:36:03;;;;;;;1.40;1.40;;;;;;;;;;4993256;28;20226;-69
2022/11/03 08:38:29;;;;;;;1.63;1.63;;;;;;;;;;4990920;28;20315;-68
2022/11/03 08:40:55;;;;;;;1.50;1.50;;;;;;;;;;4999918;28;20247;-69
2022/11/03 08:43:21;;;;;;;1.50;1.50;;;;;;;;;;4987037;28;20275;-67
2022/11/03 08:45:52;;;;;;;1.40;1.40;;;;;;;;;;4999133;28;20968;-67
2022/11/03 08:48:18;;;;;;;1.80;1.70;;;;;;;;;;4980211;28;20230;-67
2022/11/03 08:50:44;;;;;;;1.30;1.30;;;;;;;;;;4996591;28;20225;-68
2022/11/03 08:53:10;;;;;;;1.10;1.10;;;;;;;;;;4998379;28;20221;-69
2022/11/03 08:55:35;;;;;;;1.00;1.00;;;;;;;;;;4995149;28;20236;-68
2022/11/03 08:58:01;;;;;;;1.10;1.10;;;;;;;;;;4996008;28;20226;-68
2022/11/03 09:00:27;;;;;;;1.00;1.00;;;;;;;;;;4999808;28;20249;-68
2022/11/03 09:02:53;;;;;;;1.10;1.10;;;;;;;;;;4995187;28;20221;-68
2022/11/03 09:05:19;;;;;;;1.00;1.00;;;;;;;;;;4990477;28;20230;-68
2022/11/03 09:07:45;;;;;;;1.20;1.20;;;;;;;;;;4990312;28;20785;-68
2022/11/03 09:10:11;;;;;;;1.10;1.10;;;;;;;;;;4986865;28;20217;-67
2022/11/03 09:12:37;;;;;;;1.10;1.10;;;;;;;;;;4998294;28;20704;-68
2022/11/03 09:15:04;;;;;;;1.10;1.10;;;;;;;;;;5005054;28;20233;-67
2022/11/03 09:17:30;;;;;;;1.50;1.50;;;;;;;;;;4997232;28;20221;-68
2022/11/03 09:19:56;;;;;;;1.50;1.50;;;;;;;;;;5006444;28;20311;-68
2022/11/03 09:22:22;;;;;;;1.33;1.33;;;;;;;;;;5000441;28;20289;-68
2022/11/03 09:24:48;;;;;;;1.50;1.50;;;;;;;;;;5009792;28;20233;-68
2022/11/03 09:27:14;;;;;;;2.00;1.90;;;;;;;;;;4997192;28;20296;-68
2022/11/03 09:29:40;;;;;;;1.50;1.50;;;;;;;;;;4998643;28;20232;-68
2022/11/03 09:32:07;;;;;;;1.50;1.50;;;;;;;;;;5000239;28;20222;-69
2022/11/03 09:34:32;;;;;;;1.40;1.40;;;;;;;;;;5003396;28;21355;-68
2022/11/03 09:36:58;;;;;;;2.20;2.10;;;;;;;;;;5001421;28;20233;-67
2022/11/03 09:39:24;;;;;;;1.60;1.60;;;;;;;;;;5001407;28;20283;-69
2022/11/03 09:41:50;;;;;;;2.00;1.90;;;;;;;;;;5008797;28;20306;-68
2022/11/03 09:44:16;;;;;;;2.00;1.90;;;;;;;;;;5003571;28;21079;-69
2022/11/03 09:46:42;;;;;;;1.50;1.50;;;;;;;;;;4984526;28;20287;-68
2022/11/03 09:49:10;;;;;;;1.70;1.70;;;;;;;;;;4996318;28;20321;-68
2022/11/03 09:51:36;;;;;;;1.30;1.30;;;;;;;;;;4966948;28;20320;-68
2022/11/03 09:54:03;;;;;;;1.40;1.40;;;;;;;;;;4993680;28;20324;-68
2022/11/03 09:56:29;;;;;;;1.80;1.70;;;;;;;;;;4982772;28;20300;-69
2022/11/03 09:58:55;;;;;;;1.70;1.70;;;;;;;;;;4969021;28;20235;-67
2022/11/03 10:01:21;;;;;;;1.90;1.80;;;;;;;;;;4985311;28;20356;-68
2022/11/03 10:03:47;;;;;;;1.90;1.80;;;;;;;;;;4981766;28;20304;-69
2022/11/03 10:06:15;;;;;;;1.90;1.80;;;;;;;;;;4965657;28;20229;-69
2022/11/03 10:08:41;;;;;;;1.97;1.87;;;;;;;;;;4975881;28;20237;-69
2022/11/03 10:11:08;;;;;;;1.60;1.60;;;;;;;;;;4969664;28;20217;-68
2022/11/03 10:13:34;;;;;;;2.10;2.00;;;;;;;;;;4985348;28;20222;-68
2022/11/03 10:16:01;;;;;;;1.60;1.60;;;;;;;;;;4989598;28;20247;-68
2022/11/03 10:18:27;;;;;;;1.90;1.80;;;;;;;;;;4971565;28;20222;-69
2022/11/03 10:20:53;;;;;;;1.50;1.50;;;;;;;;;;4992784;28;20291;-68
2022/11/03 10:23:19;;;;;;;1.80;1.70;;;;;;;;;;4981447;28;20225;-68
2022/11/03 10:25:45;;;;;;;2.00;1.90;;;;;;;;;;4983238;28;20237;-68
2022/11/03 10:28:21;;;;;;;1.87;1.77;;;;;;;;;;4984557;28;20221;-68
2022/11/03 10:30:57;;;;;;;1.60;1.60;;;;;;;;;;4986506;28;20597;-68
2022/11/03 10:33:27;;;;;;;1.63;1.63;;;;;;;;;;4987537;28;20233;-68
2022/11/03 10:35:53;;;;;;;1.70;1.70;;;;;;;;;;4948311;28;20225;-68
2022/11/03 10:38:29;;;;;;;1.50;1.50;;;;;;;;;;4978157;28;20292;-67
2022/11/03 10:40:55;;;;;;;1.93;1.83;;;;;;;;;;4984669;28;20634;-68
2022/11/03 10:43:21;;;;;;;1.60;1.60;;;;;;;;;;4984620;28;20291;-68
2022/11/03 10:45:48;;;;;;;2.00;1.90;;;;;;;;;;4983387;28;20234;-68
2022/11/03 10:48:14;;;;;;;1.80;1.70;;;;;;;;;;4990786;28;20608;-69
2022/11/03 10:50:40;;;;;;;1.90;1.80;;;;;;;;;;4984654;28;20235;-67
2022/11/03 10:53:11;;;;;;;1.60;1.60;;;;;;;;;;4989266;28;20221;-67
2022/11/03 10:55:37;;;;;;;1.80;1.70;;;;;;;;;;4976575;28;20307;-68
2022/11/03 10:58:03;;;;;;;1.50;1.50;;;;;;;;;;4981822;28;20688;-68
2022/11/03 11:00:29;;;;;;;1.93;1.83;;;;;;;;;;4982812;28;20308;-67
2022/11/03 11:02:57;;;;;;;2.10;2.00;;;;;;;;;;4976193;28;20319;-68
2022/11/03 11:05:23;;;;;;;1.90;1.80;;;;;;;;;;4973259;28;20666;-68
2022/11/03 11:07:50;;;;;;;2.00;1.90;;;;;;;;;;4982101;28;20238;-67
2022/11/03 11:10:19;;;;;;;1.93;1.83;;;;;;;;;;5001211;28;20228;-68
2022/11/03 11:13:03;;;;;;;2.10;2.00;;;;;;;;;;5001068;28;20315;-69
2022/11/03 11:15:37;;;;;;;1.90;1.80;;;;;;;;;;4987072;28;20295;-68
2022/11/03 11:18:03;;;;;;;1.90;1.80;;;;;;;;;;4982564;28;20269;-68
2022/11/03 11:20:40;;;;;;;2.07;1.97;;;;;;;;;;4996017;28;20233;-68
2022/11/03 11:23:25;;;;;;;1.70;1.70;;;;;;;;;;4981703;28;20218;-68
2022/11/03 11:26:14;;;;;;;1.80;1.70;;;;;;;;;;4988117;28;20288;-69
2022/11/03 11:28:40;;;;;;;1.90;1.80;;;;;;;;;;4967213;28;20236;-68
2022/11/03 11:31:21;;;;;;;1.90;1.80;;;;;;;;;;4993228;28;20218;-69
2022/11/03 11:33:47;;;;;;;2.03;1.93;;;;;;;;;;5001686;28;20252;-68
2022/11/03 11:36:21;;;;;;;1.90;1.80;;;;;;;;;;4996260;28;20232;-69
2022/11/03 11:38:54;;;;;;;1.97;1.87;;;;;;;;;;4988814;28;20229;-68
2022/11/03 11:41:20;;;;;;;2.17;2.07;;;;;;;;;;4986457;28;20218;-69
2022/11/03 11:43:46;;;;;;;1.60;1.60;;;;;;;;;;4994617;28;20222;-68
2022/11/03 11:46:21;;;;;;;1.80;1.70;;;;;;;;;;4989719;28;20237;-68
2022/11/03 11:49:14;;;;;;;2.00;1.90;;;;;;;;;;4998564;28;20232;-68
2022/11/03 11:51:40;;;;;;;1.90;1.80;;;;;;;;;;4988220;28;20581;-68
2022/11/03 11:54:11;;;;;;;2.00;1.90;;;;;;;;;;4980650;28;20210;-68
2022/11/03 11:56:43;;;;;;;1.90;1.80;;;;;;;;;;4993084;28;20214;-68
2022/11/03 11:59:16;;;;;;;1.70;1.70;;;;;;;;;;4986038;28;20748;-68
2022/11/03 12:01:42;;;;;;;1.40;1.40;;;;;;;;;;4978797;28;20634;-68
2022/11/03 12:04:17;;;;;;;1.47;1.47;;;;;;;;;;4972874;28;20218;-67
2022/11/03 12:06:43;;;;;;;1.40;1.40;;;;;;;;;;4969300;28;21127;-69
2022/11/03 12:09:11;;;;;;;1.27;1.27;;;;;;;;;;4980281;28;20210;-69
2022/11/03 12:11:42;;;;;;;1.53;1.53;;;;;;;;;;4972580;28;20300;-69
2022/11/03 12:14:29;;;;;;;1.30;1.30;;;;;;;;;;4965897;28;20344;-70
2022/11/03 12:16:55;;;;;;;1.10;1.10;;;;;;;;;;4960449;28;22489;-72
2022/11/03 12:19:41;;;;;;;1.20;1.20;;;;;;;;;;4970693;28;20241;-72
2022/11/03 12:22:07;;;;;;;1.63;1.63;;;;;;;;;;4973953;28;20601;-70
2022/11/03 12:24:38;;;;;;;1.60;1.60;;;;;;;;;;4972662;28;20264;-68
2022/11/03 12:27:16;;;;;;;1.60;1.60;;;;;;;;;;4977157;28;20846;-70
2022/11/03 12:29:42;;;;;;;1.60;1.60;;;;;;;;;;4973803;28;20560;-71
2022/11/03 12:32:08;;;;;;;1.90;1.80;;;;;;;;;;4984528;28;20222;-70
2022/11/03 12:34:34;;;;;;;1.90;1.80;;;;;;;;;;4969223;28;20240;-70
2022/11/03 12:37:00;;;;;;;1.97;1.87;;;;;;;;;;4983503;28;20371;-71
2022/11/03 12:39:26;;;;;;;1.60;1.60;;;;;;;;;;4994820;28;20364;-69
2022/11/03 12:41:52;;;;;;;1.90;1.80;;;;;;;;;;5006638;28;20326;-69
2022/11/03 12:44:18;;;;;;;1.70;1.70;;;;;;;;;;4989620;28;20292;-72
2022/11/03 12:46:44;;;;;;;1.50;1.50;;;;;;;;;;4967471;28;20313;-71
2022/11/03 12:49:09;;;;;;;1.80;1.70;;;;;;;;;;4984639;28;20215;-71
2022/11/03 12:51:35;;;;;;;1.50;1.50;;;;;;;;;;4988005;28;20230;-64
2022/11/03 12:54:01;;;;;;;1.60;1.60;;;;;;;;;;5012838;28;20264;-63
2022/11/03 12:56:27;;;;;;;1.40;1.40;;;;;;;;;;4979939;28;20303;-69
2022/11/03 12:58:53;;;;;;;1.50;1.50;;;;;;;;;;4993051;28;20312;-66
2022/11/03 13:01:19;;;;;;;1.60;1.60;;;;;;;;;;5009078;28;20190;-66
2022/11/03 13:03:45;;;;;;;1.30;1.30;;;;;;;;;;5002943;28;20237;-67
2022/11/03 13:06:13;;;;;;;1.60;1.60;;;;;;;;;;5004185;28;20289;-67
2022/11/03 13:08:39;;;;;;;1.30;1.30;;;;;;;;;;5008816;28;20250;-67
2022/11/03 13:12:29;;;;;;;1.50;1.50;;;;;;;;;;4993974;28;20223;-66
2022/11/03 13:13:54;;;;;;;1.60;1.60;;;;;;;;;;4990124;28;20237;-65
2022/11/03 13:16:20;;;;;;;1.47;1.47;;;;;;;;;;5003009;28;20230;-64
2022/11/03 13:18:46;;;;;;;1.47;1.47;;;;;;;;;;5000512;28;20239;-64
2022/11/03 13:21:12;;;;;;;1.60;1.60;;;;;;;;;;5008887;28;20315;-64
2022/11/03 13:23:38;;;;;;;1.43;1.43;;;;;;;;;;5003363;28;20209;-64
2022/11/03 13:26:04;;;;;;;1.70;1.70;;;;;;;;;;5002529;28;20223;-66
2022/11/03 13:28:30;;;;;;;1.60;1.60;;;;;;;;;;5002160;28;20249;-65
2022/11/03 13:30:56;;;;;;;1.70;1.67;;;;;;;;;;4995971;28;21913;-65
2022/11/03 13:33:22;;;;;;;1.60;1.60;;;;;;;;;;5000187;28;20223;-65
2022/11/03 13:35:48;;;;;;;1.80;1.70;;;;;;;;;;5004235;28;20237;-65
2022/11/03 13:38:14;;;;;;;1.40;1.40;;;;;;;;;;4995451;28;20230;-65
2022/11/03 13:40:39;;;;;;;1.83;1.73;;;;;;;;;;5000663;28;20236;-65
2022/11/03 13:43:06;;;;;;;1.60;1.60;;;;;;;;;;4992051;28;20221;-65
2022/11/03 13:45:31;;;;;;;1.50;1.50;;;;;;;;;;4990964;28;20222;-65
2022/11/03 13:47:57;;;;;;;1.90;1.80;;;;;;;;;;5007963;28;20221;-65
2022/11/03 13:50:23;;;;;;;1.70;1.60;;;;;;;;;;5004355;28;20245;-65
2022/11/03 13:52:49;;;;;;;1.77;1.70;;;;;;;;;;4999575;28;20218;-65
2022/11/03 13:55:15;;;;;;;1.90;1.80;;;;;;;;;;5009511;28;20224;-64
2022/11/03 13:57:41;;;;;;;2.30;2.20;;;;;;;;;;4993933;28;20236;-67
2022/11/03 14:00:08;;;;;;;2.43;2.33;;;;;;;;;;5000352;28;20213;-67
2022/11/03 14:02:34;;;;;;;2.60;2.50;;;;;;;;;;5003284;28;20320;-67
2022/11/03 14:05:00;;;;;;;2.20;2.10;;;;;;;;;;5000160;28;20217;-67
2022/11/03 14:07:26;;;;;;;2.30;2.20;;;;;;;;;;5001538;28;20289;-67
2022/11/03 14:09:52;;;;;;;2.80;2.70;;;;;;;;;;4982050;28;20709;-66
2022/11/03 14:12:30;;;;;;;2.40;2.30;;;;;;;;;;4980766;28;20228;-67
2022/11/03 14:14:56;;;;;;;2.00;1.90;;;;;;;;;;4975992;28;20237;-66
2022/11/03 14:17:23;;;;;;;2.60;2.50;;;;;;;;;;4984174;28;20217;-67
2022/11/03 14:19:49;;;;;;;2.30;2.20;;;;;;;;;;4975950;28;22543;-67
2022/11/03 14:22:15;;;;;;;2.20;2.10;;;;;;;;;;4977322;28;20226;-67
2022/11/03 14:24:41;;;;;;;2.20;2.10;;;;;;;;;;4986539;28;20225;-67
2022/11/03 14:27:07;;;;;;;2.53;2.43;;;;;;;;;;4988226;28;20232;-67
2022/11/03 14:29:33;;;;;;;1.90;1.80;;;;;;;;;;4979234;28;20218;-67
2022/11/03 14:31:59;;;;;;;2.30;2.20;;;;;;;;;;4985050;28;20224;-67
2022/11/03 14:34:25;;;;;;;1.97;1.87;;;;;;;;;;4986877;28;20198;-67
2022/11/03 14:36:51;;;;;;;2.03;1.93;;;;;;;;;;4997929;28;20229;-67
2022/11/03 14:39:17;;;;;;;1.67;1.67;;;;;;;;;;4989607;28;20209;-67
2022/11/03 14:44:27;;;;;;;1.60;1.60;;;;;;;;;;4995616;28;20302;-67
2022/11/03 14:46:53;;;;;;;1.60;1.60;;;;;;;;;;5003204;28;20225;-67
2022/11/03 14:49:19;;;;;;;1.50;1.50;;;;;;;;;;4994998;28;20218;-67
2022/11/03 14:51:45;;;;;;;1.87;1.77;;;;;;;;;;4997264;28;20227;-67
2022/11/03 14:54:11;;;;;;;1.50;1.50;;;;;;;;;;4991061;28;20228;-67
2022/11/03 14:56:37;;;;;;;1.70;1.70;;;;;;;;;;4991332;28;20233;-67
2022/11/03 14:59:03;;;;;;;1.40;1.40;;;;;;;;;;4984005;28;20238;-67
2022/11/03 15:01:30;;;;;;;1.70;1.70;;;;;;;;;;4986609;28;20237;-66
2022/11/03 15:03:56;;;;;;;2.10;2.00;;;;;;;;;;4994049;28;20218;-66
2022/11/03 15:06:22;;;;;;;2.10;2.00;;;;;;;;;;4994507;28;20302;-65
2022/11/03 15:08:47;;;;;;;2.30;2.20;;;;;;;;;;5015960;28;20233;-66
2022/11/03 15:11:13;;;;;;;1.80;1.70;;;;;;;;;;4998572;28;20585;-66
2022/11/03 15:13:39;;;;;;;1.97;1.87;;;;;;;;;;5004492;28;20234;-68